sensor_id;sensor_type;location;lat;lon;timestamp;pressure;altitude;pressure_sealevel;temperature;humidity
77639;BME280;66802;52.574;14.398;2023-08-12T03:02:56;101978.09;;;14.93;83.20
77639;BME280;66802;52.574;14.398;2023-08-12T03:05:22;101978.06;;;15.03;82.60
77639;BME280;66802;52.574;14.398;2023-08-12T03:07:47;101967.22;;;14.93;83.00
77639;BME280;66802;52.574;14.398;2023-08-12T03:10:13;101968.06;;;14.94;83.01
77639;BME280;66802;52.574;14.398;2023-08-12T03:12:38;101963.97;;;14.90;83.45
77639;BME280;66802;52.574;14.398;2023-08-12T03:15:06;101968.47;;;14.81;83.39
77639;BME280;66802;52.574;14.398;2023-08-12T03:17:33;101963.31;;;14.78;83.82
77639;BME280;66802;52.574;14.398;2023-08-12T03:19:58;101966.81;;;14.71;84.47
77639;BME280;66802;52.574;14.398;2023-08-12T03:22:30;101972.78;;;14.74;84.69
77639;BME280;66802;52.574;14.398;2023-08-12T03:24:56;101957.44;;;14.55;85.26
77639;BME280;66802;52.574;14.398;2023-08-12T03:27:21;101954.56;;;14.57;85.48
77639;BME280;66802;52.574;14.398;2023-08-12T03:29:47;101944.00;;;14.54;85.29
77639;BME280;66802;52.574;14.398;2023-08-12T03:32:13;101944.91;;;14.45;85.70
77639;BME280;66802;52.574;14.398;2023-08-12T03:34:38;101949.28;;;14.55;85.24
77639;BME280;66802;52.574;14.398;2023-08-12T03:37:04;101953.84;;;14.55;85.19
77639;BME280;66802;52.574;14.398;2023-08-12T03:39:29;101961.72;;;14.58;85.08
77639;BME280;66802;52.574;14.398;2023-08-12T03:41:55;101960.84;;;14.57;85.05
77639;BME280;66802;52.574;14.398;2023-08-12T03:44:20;101957.09;;;14.68;84.41
77639;BME280;66802;52.574;14.398;2023-08-12T03:46:46;101950.88;;;14.76;84.27
77639;BME280;66802;52.574;14.398;2023-08-12T03:49:11;101943.22;;;14.89;83.59
77639;BME280;66802;52.574;14.398;2023-08-12T03:51:37;101945.78;;;14.90;82.94
77639;BME280;66802;52.574;14.398;2023-08-12T03:54:03;101945.94;;;14.89;83.18
77639;BME280;66802;52.574;14.398;2023-08-12T03:56:29;101944.47;;;14.94;82.77
77639;BME280;66802;52.574;14.398;2023-08-12T03:58:55;101951.09;;;14.92;83.20
77639;BME280;66802;52.574;14.398;2023-08-12T04:01:20;101939.88;;;14.95;82.93
77639;BME280;66802;52.574;14.398;2023-08-12T04:03:47;101940.44;;;14.98;82.82
77639;BME280;66802;52.574;14.398;2023-08-12T04:06:12;101932.44;;;14.97;82.48
77639;BME280;66802;52.574;14.398;2023-08-12T04:08:38;101933.19;;;14.89;82.98
77639;BME280;66802;52.574;14.398;2023-08-12T04:11:04;101934.84;;;15.00;82.74
77639;BME280;66802;52.574;14.398;2023-08-12T04:13:29;101934.44;;;14.95;82.92
77639;BME280;66802;52.574;14.398;2023-08-12T04:15:55;101937.78;;;15.07;82.55
77639;BME280;66802;52.574;14.398;2023-08-12T04:18:22;101933.75;;;15.11;82.19
77639;BME280;66802;52.574;14.398;2023-08-12T04:20:49;101929.56;;;15.16;81.88
77639;BME280;66802;52.574;14.398;2023-08-12T04:23:16;101921.19;;;15.10;81.99
77639;BME280;66802;52.574;14.398;2023-08-12T04:25:46;101917.66;;;15.00;82.68
77639;BME280;66802;52.574;14.398;2023-08-12T04:28:13;101917.38;;;15.03;82.84
77639;BME280;66802;52.574;14.398;2023-08-12T04:30:42;101925.34;;;15.04;82.87
77639;BME280;66802;52.574;14.398;2023-08-12T04:33:08;101919.22;;;15.20;82.20
77639;BME280;66802;52.574;14.398;2023-08-12T04:35:34;101914.34;;;15.23;81.92
77639;BME280;66802;52.574;14.398;2023-08-12T04:37:59;101922.16;;;15.26;81.86
77639;BME280;66802;52.574;14.398;2023-08-12T04:40:25;101935.09;;;15.24;82.00
77639;BME280;66802;52.574;14.398;2023-08-12T04:42:51;101922.28;;;15.34;81.51
77639;BME280;66802;52.574;14.398;2023-08-12T04:45:16;101922.88;;;15.46;81.36
77639;BME280;66802;52.574;14.398;2023-08-12T04:47:42;101917.38;;;15.56;80.58
77639;BME280;66802;52.574;14.398;2023-08-12T04:50:08;101920.31;;;15.62;80.63
77639;BME280;66802;52.574;14.398;2023-08-12T04:52:33;101915.03;;;15.61;80.83
77639;BME280;66802;52.574;14.398;2023-08-12T04:54:59;101917.66;;;15.70;80.27
77639;BME280;66802;52.574;14.398;2023-08-12T04:57:25;101916.47;;;15.73;80.54
77639;BME280;66802;52.574;14.398;2023-08-12T04:59:51;101920.59;;;15.77;81.22
77639;BME280;66802;52.574;14.398;2023-08-12T05:02:16;101917.03;;;15.77;81.77
77639;BME280;66802;52.574;14.398;2023-08-12T05:04:48;101917.19;;;15.75;81.25
77639;BME280;66802;52.574;14.398;2023-08-12T05:07:15;101923.69;;;15.82;81.35
77639;BME280;66802;52.574;14.398;2023-08-12T05:09:40;101921.72;;;15.92;81.17
77639;BME280;66802;52.574;14.398;2023-08-12T05:12:09;101917.72;;;16.04;80.79
77639;BME280;66802;52.574;14.398;2023-08-12T05:14:35;101924.06;;;16.13;80.30
77639;BME280;66802;52.574;14.398;2023-08-12T05:17:00;101919.84;;;16.19;79.93
77639;BME280;66802;52.574;14.398;2023-08-12T05:19:26;101907.81;;;16.29;80.01
77639;BME280;66802;52.574;14.398;2023-08-12T05:21:51;101908.72;;;16.46;80.03
77639;BME280;66802;52.574;14.398;2023-08-12T05:24:17;101907.56;;;16.57;79.59
77639;BME280;66802;52.574;14.398;2023-08-12T05:26:42;101904.84;;;16.57;79.55
77639;BME280;66802;52.574;14.398;2023-08-12T05:29:08;101910.72;;;16.70;79.37
77639;BME280;66802;52.574;14.398;2023-08-12T05:31:34;101905.97;;;16.80;79.33
77639;BME280;66802;52.574;14.398;2023-08-12T05:33:59;101886.22;;;16.86;78.94
77639;BME280;66802;52.574;14.398;2023-08-12T05:36:25;101893.91;;;16.99;78.71
77639;BME280;66802;52.574;14.398;2023-08-12T05:38:51;101887.78;;;17.05;78.11
77639;BME280;66802;52.574;14.398;2023-08-12T05:41:16;101886.44;;;17.17;77.75
77639;BME280;66802;52.574;14.398;2023-08-12T05:43:42;101896.16;;;17.28;77.51
77639;BME280;66802;52.574;14.398;2023-08-12T05:46:07;101893.28;;;17.37;76.98
77639;BME280;66802;52.574;14.398;2023-08-12T05:48:33;101898.03;;;17.43;76.76
77639;BME280;66802;52.574;14.398;2023-08-12T05:50:58;101887.97;;;17.60;75.77
77639;BME280;66802;52.574;14.398;2023-08-12T05:53:24;101889.00;;;17.67;75.61
77639;BME280;66802;52.574;14.398;2023-08-12T05:55:49;101879.94;;;17.83;74.28
77639;BME280;66802;52.574;14.398;2023-08-12T05:58:15;101876.16;;;17.92;73.87
77639;BME280;66802;52.574;14.398;2023-08-12T06:00:41;101886.38;;;17.98;74.29
77639;BME280;66802;52.574;14.398;2023-08-12T06:03:10;101886.19;;;18.08;74.95
77639;BME280;66802;52.574;14.398;2023-08-12T06:05:36;101882.00;;;18.28;73.64
77639;BME280;66802;52.574;14.398;2023-08-12T06:08:02;101881.75;;;18.54;71.96
77639;BME280;66802;52.574;14.398;2023-08-12T06:10:28;101878.75;;;18.72;71.21
77639;BME280;66802;52.574;14.398;2023-08-12T06:12:53;101875.81;;;18.81;71.50
77639;BME280;66802;52.574;14.398;2023-08-12T06:15:19;101877.06;;;19.02;69.90
77639;BME280;66802;52.574;14.398;2023-08-12T06:17:44;101885.50;;;19.15;69.76
77639;BME280;66802;52.574;14.398;2023-08-12T06:20:11;101876.38;;;19.22;69.20
77639;BME280;66802;52.574;14.398;2023-08-12T06:22:37;101882.03;;;19.21;69.75
77639;BME280;66802;52.574;14.398;2023-08-12T06:25:03;101883.66;;;19.30;69.38
77639;BME280;66802;52.574;14.398;2023-08-12T06:27:28;101883.50;;;19.31;69.44
77639;BME280;66802;52.574;14.398;2023-08-12T06:29:54;101884.00;;;19.35;68.95
77639;BME280;66802;52.574;14.398;2023-08-12T06:32:19;101881.97;;;19.29;69.68
77639;BME280;66802;52.574;14.398;2023-08-12T06:34:45;101879.28;;;19.44;68.44
77639;BME280;66802;52.574;14.398;2023-08-12T06:37:10;101880.13;;;19.44;68.38
77639;BME280;66802;52.574;14.398;2023-08-12T06:39:36;101884.03;;;19.50;67.86
77639;BME280;66802;52.574;14.398;2023-08-12T06:42:01;101873.56;;;19.53;68.37
77639;BME280;66802;52.574;14.398;2023-08-12T06:44:28;101874.25;;;19.55;68.36
77639;BME280;66802;52.574;14.398;2023-08-12T06:46:54;101877.09;;;19.62;68.62
77639;BME280;66802;52.574;14.398;2023-08-12T06:49:20;101888.28;;;19.75;68.14
77639;BME280;66802;52.574;14.398;2023-08-12T06:51:45;101880.25;;;20.03;67.44
77639;BME280;66802;52.574;14.398;2023-08-12T06:54:11;101874.66;;;20.26;66.76
77639;BME280;66802;52.574;14.398;2023-08-12T06:56:36;101874.41;;;20.50;66.21
77639;BME280;66802;52.574;14.398;2023-08-12T06:59:02;101875.88;;;20.67;64.86
77639;BME280;66802;52.574;14.398;2023-08-12T07:01:27;101874.09;;;20.60;65.87
77639;BME280;66802;52.574;14.398;2023-08-12T07:03:53;101866.28;;;20.78;64.21
77639;BME280;66802;52.574;14.398;2023-08-12T07:06:18;101861.53;;;20.87;64.33
77639;BME280;66802;52.574;14.398;2023-08-12T07:08:44;101855.59;;;20.83;64.32
77639;BME280;66802;52.574;14.398;2023-08-12T07:11:09;101852.25;;;20.88;63.77
77639;BME280;66802;52.574;14.398;2023-08-12T07:13:35;101855.41;;;20.85;63.88
77639;BME280;66802;52.574;14.398;2023-08-12T07:16:01;101847.34;;;20.83;63.71
77639;BME280;66802;52.574;14.398;2023-08-12T07:18:26;101850.28;;;20.82;63.95
77639;BME280;66802;52.574;14.398;2023-08-12T07:20:52;101854.59;;;20.91;63.84
77639;BME280;66802;52.574;14.398;2023-08-12T07:23:17;101850.56;;;20.87;64.61
77639;BME280;66802;52.574;14.398;2023-08-12T07:25:43;101858.53;;;21.03;65.16
77639;BME280;66802;52.574;14.398;2023-08-12T07:28:10;101850.84;;;21.34;64.63
77639;BME280;66802;52.574;14.398;2023-08-12T07:30:36;101851.25;;;21.59;63.95
77639;BME280;66802;52.574;14.398;2023-08-12T07:33:01;101855.88;;;21.86;62.02
77639;BME280;66802;52.574;14.398;2023-08-12T07:35:27;101848.03;;;22.11;60.82
77639;BME280;66802;52.574;14.398;2023-08-12T07:37:52;101853.81;;;22.23;61.85
77639;BME280;66802;52.574;14.398;2023-08-12T07:40:18;101856.06;;;22.47;59.46
77639;BME280;66802;52.574;14.398;2023-08-12T07:42:43;101855.66;;;22.57;59.06
77639;BME280;66802;52.574;14.398;2023-08-12T07:45:09;101848.25;;;22.57;60.21
77639;BME280;66802;52.574;14.398;2023-08-12T07:47:35;101846.19;;;22.73;58.40
77639;BME280;66802;52.574;14.398;2023-08-12T07:50:00;101840.53;;;22.81;57.74
77639;BME280;66802;52.574;14.398;2023-08-12T07:52:26;101849.44;;;22.89;58.24
77639;BME280;66802;52.574;14.398;2023-08-12T07:54:51;101842.25;;;22.88;58.29
77639;BME280;66802;52.574;14.398;2023-08-12T07:57:17;101837.63;;;23.02;58.90
77639;BME280;66802;52.574;14.398;2023-08-12T07:59:42;101842.69;;;23.18;57.31
77639;BME280;66802;52.574;14.398;2023-08-12T08:02:08;101834.03;;;23.21;58.27
77639;BME280;66802;52.574;14.398;2023-08-12T08:04:33;101842.06;;;23.29;57.80
77639;BME280;66802;52.574;14.398;2023-08-12T08:07:00;101835.72;;;23.49;57.24
77639;BME280;66802;52.574;14.398;2023-08-12T08:09:25;101832.97;;;23.75;56.76
77639;BME280;66802;52.574;14.398;2023-08-12T08:11:51;101841.19;;;23.95;54.95
77639;BME280;66802;52.574;14.398;2023-08-12T08:14:17;101831.88;;;23.96;55.12
77639;BME280;66802;52.574;14.398;2023-08-12T08:16:42;101832.75;;;23.83;56.90
77639;BME280;66802;52.574;14.398;2023-08-12T08:19:08;101832.31;;;23.80;56.32
77639;BME280;66802;52.574;14.398;2023-08-12T08:21:35;101825.72;;;23.81;55.64
77639;BME280;66802;52.574;14.398;2023-08-12T08:24:01;101831.91;;;23.76;55.91
77639;BME280;66802;52.574;14.398;2023-08-12T08:26:27;101825.78;;;23.68;55.11
77639;BME280;66802;52.574;14.398;2023-08-12T08:28:52;101832.16;;;23.68;55.84
77639;BME280;66802;52.574;14.398;2023-08-12T08:31:18;101830.41;;;23.80;55.82
77639;BME280;66802;52.574;14.398;2023-08-12T08:33:43;101826.59;;;23.75;55.54
77639;BME280;66802;52.574;14.398;2023-08-12T08:36:09;101838.25;;;23.83;55.08
77639;BME280;66802;52.574;14.398;2023-08-12T08:38:35;101835.72;;;23.75;56.09
77639;BME280;66802;52.574;14.398;2023-08-12T08:41:05;101825.56;;;23.62;55.50
77639;BME280;66802;52.574;14.398;2023-08-12T08:43:32;101828.75;;;23.66;55.30
77639;BME280;66802;52.574;14.398;2023-08-12T08:46:01;101822.38;;;23.59;56.31
77639;BME280;66802;52.574;14.398;2023-08-12T08:48:27;101822.38;;;23.65;55.92
77639;BME280;66802;52.574;14.398;2023-08-12T08:50:53;101824.72;;;23.62;56.49
77639;BME280;66802;52.574;14.398;2023-08-12T08:53:19;101828.50;;;23.74;56.10
77639;BME280;66802;52.574;14.398;2023-08-12T08:55:46;101827.84;;;23.85;56.20
77639;BME280;66802;52.574;14.398;2023-08-12T08:58:11;101831.25;;;23.87;55.85
77639;BME280;66802;52.574;14.398;2023-08-12T09:00:38;101832.53;;;23.85;56.60
77639;BME280;66802;52.574;14.398;2023-08-12T09:03:05;101827.22;;;23.83;56.74
77639;BME280;66802;52.574;14.398;2023-08-12T09:05:32;101821.47;;;23.91;56.44
77639;BME280;66802;52.574;14.398;2023-08-12T09:08:00;101812.97;;;23.99;55.81
77639;BME280;66802;52.574;14.398;2023-08-12T09:10:28;101822.28;;;24.05;54.79
77639;BME280;66802;52.574;14.398;2023-08-12T09:12:55;101822.97;;;24.00;55.11
77639;BME280;66802;52.574;14.398;2023-08-12T09:15:21;101818.25;;;24.08;55.20
77639;BME280;66802;52.574;14.398;2023-08-12T09:17:46;101816.97;;;24.10;55.85
77639;BME280;66802;52.574;14.398;2023-08-12T09:20:12;101809.94;;;24.14;57.18
77639;BME280;66802;52.574;14.398;2023-08-12T09:22:39;101825.22;;;24.23;56.16
77639;BME280;66802;52.574;14.398;2023-08-12T09:25:05;101814.59;;;24.27;54.93
77639;BME280;66802;52.574;14.398;2023-08-12T09:27:31;101813.97;;;24.25;54.46
77639;BME280;66802;52.574;14.398;2023-08-12T09:29:58;101799.09;;;24.26;54.86
77639;BME280;66802;52.574;14.398;2023-08-12T09:32:24;101799.94;;;24.33;54.12
77639;BME280;66802;52.574;14.398;2023-08-12T09:34:51;101798.47;;;24.24;54.81
77639;BME280;66802;52.574;14.398;2023-08-12T09:37:18;101796.34;;;24.26;54.54
77639;BME280;66802;52.574;14.398;2023-08-12T09:39:44;101807.38;;;24.19;55.89
77639;BME280;66802;52.574;14.398;2023-08-12T09:42:11;101795.09;;;24.22;55.69
77639;BME280;66802;52.574;14.398;2023-08-12T09:44:37;101793.59;;;24.19;55.02
77639;BME280;66802;52.574;14.398;2023-08-12T09:47:03;101792.34;;;24.22;55.17
77639;BME280;66802;52.574;14.398;2023-08-12T09:49:29;101792.09;;;24.17;55.92
77639;BME280;66802;52.574;14.398;2023-08-12T09:51:56;101784.47;;;24.12;56.58
77639;BME280;66802;52.574;14.398;2023-08-12T09:54:22;101777.28;;;24.11;56.54
77639;BME280;66802;52.574;14.398;2023-08-12T09:56:55;101772.19;;;24.01;57.77
77639;BME280;66802;52.574;14.398;2023-08-12T09:59:24;101779.41;;;24.02;57.52
77639;BME280;66802;52.574;14.398;2023-08-12T10:01:52;101769.22;;;24.10;57.00
77639;BME280;66802;52.574;14.398;2023-08-12T10:04:22;101769.84;;;24.12;56.72
77639;BME280;66802;52.574;14.398;2023-08-12T10:06:48;101761.50;;;24.31;55.60
77639;BME280;66802;52.574;14.398;2023-08-12T10:09:17;101769.81;;;24.25;56.53
77639;BME280;66802;52.574;14.398;2023-08-12T10:11:45;101766.19;;;24.31;56.19
77639;BME280;66802;52.574;14.398;2023-08-12T10:14:12;101759.97;;;24.42;56.56
77639;BME280;66802;52.574;14.398;2023-08-12T10:16:39;101757.09;;;24.62;55.80
77639;BME280;66802;52.574;14.398;2023-08-12T10:19:11;101753.19;;;24.69;55.85
77639;BME280;66802;52.574;14.398;2023-08-12T10:21:37;101755.66;;;24.84;56.48
77639;BME280;66802;52.574;14.398;2023-08-12T10:24:03;101749.59;;;25.00;55.88
77639;BME280;66802;52.574;14.398;2023-08-12T10:26:30;101753.63;;;25.29;54.61
77639;BME280;66802;52.574;14.398;2023-08-12T10:28:59;101740.44;;;25.50;54.50
77639;BME280;66802;52.574;14.398;2023-08-12T10:31:27;101737.41;;;25.76;54.62
77639;BME280;66802;52.574;14.398;2023-08-12T10:33:59;101741.09;;;26.06;54.04
77639;BME280;66802;52.574;14.398;2023-08-12T10:36:27;101742.84;;;26.37;55.01
77639;BME280;66802;52.574;14.398;2023-08-12T10:38:53;101736.50;;;26.48;52.04
77639;BME280;66802;52.574;14.398;2023-08-12T10:41:23;101737.63;;;26.59;51.04
77639;BME280;66802;52.574;14.398;2023-08-12T10:43:52;101730.50;;;26.63;51.24
77639;BME280;66802;52.574;14.398;2023-08-12T10:46:29;101737.97;;;26.63;51.21
77639;BME280;66802;52.574;14.398;2023-08-12T10:49:17;101736.06;;;26.63;52.21
77639;BME280;66802;52.574;14.398;2023-08-12T10:51:52;101728.81;;;26.62;52.25
77639;BME280;66802;52.574;14.398;2023-08-12T10:54:26;101728.75;;;26.80;52.51
77639;BME280;66802;52.574;14.398;2023-08-12T11:04:43;101717.25;;;27.42;50.53
77639;BME280;66802;52.574;14.398;2023-08-12T11:07:17;101716.06;;;27.61;51.67
77639;BME280;66802;52.574;14.398;2023-08-12T11:09:45;101715.94;;;27.79;52.30
77639;BME280;66802;52.574;14.398;2023-08-12T11:12:11;101710.72;;;27.83;50.01
77639;BME280;66802;52.574;14.398;2023-08-12T11:14:53;101710.50;;;27.73;52.47
77639;BME280;66802;52.574;14.398;2023-08-12T11:17:19;101711.31;;;27.85;49.92
77639;BME280;66802;52.574;14.398;2023-08-12T11:19:44;101713.69;;;27.93;50.53
77639;BME280;66802;52.574;14.398;2023-08-12T11:22:11;101706.78;;;28.07;50.23
77639;BME280;66802;52.574;14.398;2023-08-12T11:24:40;101702.91;;;28.08;50.65
77639;BME280;66802;52.574;14.398;2023-08-12T11:27:09;101700.25;;;28.02;49.52
77639;BME280;66802;52.574;14.398;2023-08-12T11:29:37;101702.50;;;27.88;50.06
77639;BME280;66802;52.574;14.398;2023-08-12T11:32:03;101699.50;;;27.78;50.26
77639;BME280;66802;52.574;14.398;2023-08-12T11:34:30;101692.66;;;27.69;49.80
77639;BME280;66802;52.574;14.398;2023-08-12T11:36:57;101685.50;;;27.73;52.16
77639;BME280;66802;52.574;14.398;2023-08-12T11:39:22;101683.72;;;27.67;50.92
77639;BME280;66802;52.574;14.398;2023-08-12T11:41:48;101677.44;;;27.59;51.04
77639;BME280;66802;52.574;14.398;2023-08-12T11:44:16;101676.28;;;27.55;51.05
77639;BME280;66802;52.574;14.398;2023-08-12T11:46:42;101671.03;;;27.47;51.31
77639;BME280;66802;52.574;14.398;2023-08-12T11:49:07;101673.25;;;27.34;53.03
77639;BME280;66802;52.574;14.398;2023-08-12T11:51:34;101675.19;;;27.33;52.08
77639;BME280;66802;52.574;14.398;2023-08-12T11:54:01;101677.81;;;27.28;50.38
77639;BME280;66802;52.574;14.398;2023-08-12T11:56:27;101681.69;;;27.27;51.86
77639;BME280;66802;52.574;14.398;2023-08-12T11:58:53;101680.38;;;27.18;53.38
77639;BME280;66802;52.574;14.398;2023-08-12T12:01:21;101680.50;;;27.23;52.28
77639;BME280;66802;52.574;14.398;2023-08-12T12:03:54;101685.53;;;27.26;51.73
77639;BME280;66802;52.574;14.398;2023-08-12T12:06:36;101673.13;;;27.17;52.56
77639;BME280;66802;52.574;14.398;2023-08-12T12:09:09;101679.41;;;27.12;51.25
77639;BME280;66802;52.574;14.398;2023-08-12T12:11:36;101674.34;;;27.09;51.54
77639;BME280;66802;52.574;14.398;2023-08-12T12:14:03;101678.69;;;27.17;51.58
77639;BME280;66802;52.574;14.398;2023-08-12T12:16:46;101676.66;;;27.12;50.66
77639;BME280;66802;52.574;14.398;2023-08-12T12:19:17;101677.81;;;27.05;51.22
77639;BME280;66802;52.574;14.398;2023-08-12T12:21:48;101678.28;;;26.90;52.64
77639;BME280;66802;52.574;14.398;2023-08-12T12:24:15;101672.72;;;26.78;52.75
77639;BME280;66802;52.574;14.398;2023-08-12T12:26:42;101673.31;;;26.69;53.04
77639;BME280;66802;52.574;14.398;2023-08-12T12:29:08;101672.94;;;26.65;54.43
77639;BME280;66802;52.574;14.398;2023-08-12T12:31:35;101671.34;;;26.46;55.66
77639;BME280;66802;52.574;14.398;2023-08-12T12:34:05;101676.84;;;26.34;57.08
77639;BME280;66802;52.574;14.398;2023-08-12T12:36:32;101673.53;;;26.26;57.03
77639;BME280;66802;52.574;14.398;2023-08-12T12:38:57;101672.75;;;26.18;56.52
77639;BME280;66802;52.574;14.398;2023-08-12T12:41:23;101671.78;;;26.13;57.89
77639;BME280;66802;52.574;14.398;2023-08-12T12:43:49;101675.63;;;26.12;57.32
77639;BME280;66802;52.574;14.398;2023-08-12T12:46:15;101674.19;;;26.09;56.74
77639;BME280;66802;52.574;14.398;2023-08-12T12:48:42;101670.78;;;26.07;58.57
77639;BME280;66802;52.574;14.398;2023-08-12T12:51:07;101674.19;;;26.09;59.93
77639;BME280;66802;52.574;14.398;2023-08-12T12:53:33;101665.53;;;26.06;60.43
77639;BME280;66802;52.574;14.398;2023-08-12T12:55:59;101663.94;;;26.10;61.10
77639;BME280;66802;52.574;14.398;2023-08-12T12:58:33;101664.41;;;26.07;61.38
77639;BME280;66802;52.574;14.398;2023-08-12T13:01:00;101649.72;;;25.95;61.29
77639;BME280;66802;52.574;14.398;2023-08-12T13:03:25;101662.88;;;25.81;63.03
77639;BME280;66802;52.574;14.398;2023-08-12T13:05:52;101670.72;;;25.84;62.45
77639;BME280;66802;52.574;14.398;2023-08-12T13:08:18;101658.53;;;25.85;62.55
77639;BME280;66802;52.574;14.398;2023-08-12T13:10:43;101669.06;;;25.76;63.24
77639;BME280;66802;52.574;14.398;2023-08-12T13:13:09;101659.19;;;25.69;64.00
77639;BME280;66802;52.574;14.398;2023-08-12T13:15:35;101665.78;;;25.68;63.21
77639;BME280;66802;52.574;14.398;2023-08-12T13:18:01;101661.00;;;25.57;64.18
77639;BME280;66802;52.574;14.398;2023-08-12T13:20:26;101666.13;;;25.53;64.68
77639;BME280;66802;52.574;14.398;2023-08-12T13:22:52;101658.66;;;25.60;63.96
77639;BME280;66802;52.574;14.398;2023-08-12T13:25:17;101656.75;;;25.61;64.38
77639;BME280;66802;52.574;14.398;2023-08-12T13:27:43;101657.78;;;25.60;62.44
77639;BME280;66802;52.574;14.398;2023-08-12T13:30:09;101648.88;;;25.58;62.31
77639;BME280;66802;52.574;14.398;2023-08-12T13:32:37;101643.53;;;25.63;60.95
77639;BME280;66802;52.574;14.398;2023-08-12T13:35:03;101634.97;;;25.64;60.79
77639;BME280;66802;52.574;14.398;2023-08-12T13:37:29;101638.41;;;25.60;62.15
77639;BME280;66802;52.574;14.398;2023-08-12T13:39:54;101637.81;;;25.58;61.69
77639;BME280;66802;52.574;14.398;2023-08-12T13:42:20;101624.66;;;25.53;61.07
77639;BME280;66802;52.574;14.398;2023-08-12T13:44:45;101618.59;;;25.44;61.59
77639;BME280;66802;52.574;14.398;2023-08-12T13:47:11;101618.69;;;25.38;62.37
77639;BME280;66802;52.574;14.398;2023-08-12T13:49:36;101614.22;;;25.37;61.49
77639;BME280;66802;52.574;14.398;2023-08-12T13:52:02;101607.25;;;25.34;61.93
77639;BME280;66802;52.574;14.398;2023-08-12T13:54:28;101601.25;;;25.37;61.98
77639;BME280;66802;52.574;14.398;2023-08-12T13:56:53;101583.94;;;25.42;61.31
77639;BME280;66802;52.574;14.398;2023-08-12T13:59:19;101590.19;;;25.37;61.80
77639;BME280;66802;52.574;14.398;2023-08-12T14:01:44;101593.88;;;25.31;62.25
77639;BME280;66802;52.574;14.398;2023-08-12T14:04:10;101598.63;;;25.24;63.34
77639;BME280;66802;52.574;14.398;2023-08-12T14:06:35;101603.53;;;25.22;63.38
77639;BME280;66802;52.574;14.398;2023-08-12T14:09:01;101593.09;;;25.24;63.08
77639;BME280;66802;52.574;14.398;2023-08-12T14:11:27;101593.28;;;25.29;61.82
77639;BME280;66802;52.574;14.398;2023-08-12T14:13:53;101590.50;;;25.29;61.77
77639;BME280;66802;52.574;14.398;2023-08-12T14:16:19;101579.28;;;25.24;61.84
77639;BME280;66802;52.574;14.398;2023-08-12T14:18:44;101577.59;;;25.23;62.02
77639;BME280;66802;52.574;14.398;2023-08-12T14:21:10;101576.06;;;25.27;62.17
77639;BME280;66802;52.574;14.398;2023-08-12T14:23:35;101566.94;;;25.27;62.45
77639;BME280;66802;52.574;14.398;2023-08-12T14:26:01;101568.53;;;25.34;61.45
77639;BME280;66802;52.574;14.398;2023-08-12T14:28:26;101560.25;;;25.34;62.01
77639;BME280;66802;52.574;14.398;2023-08-12T14:30:53;101564.91;;;25.34;62.70
77639;BME280;66802;52.574;14.398;2023-08-12T14:33:19;101565.31;;;25.37;62.96
77639;BME280;66802;52.574;14.398;2023-08-12T14:35:45;101565.31;;;25.37;63.19
77639;BME280;66802;52.574;14.398;2023-08-12T14:38:10;101557.13;;;25.31;63.13
77639;BME280;66802;52.574;14.398;2023-08-12T14:40:36;101559.03;;;25.30;63.38
77639;BME280;66802;52.574;14.398;2023-08-12T14:43:01;101553.25;;;25.32;63.52
77639;BME280;66802;52.574;14.398;2023-08-12T14:45:27;101557.75;;;25.44;61.08
77639;BME280;66802;52.574;14.398;2023-08-12T14:47:52;101552.06;;;25.58;62.14
77639;BME280;66802;52.574;14.398;2023-08-12T14:50:18;101553.59;;;25.72;60.17
77639;BME280;66802;52.574;14.398;2023-08-12T14:52:43;101550.88;;;25.84;61.12
77639;BME280;66802;52.574;14.398;2023-08-12T14:55:09;101552.50;;;26.03;59.61
77639;BME280;66802;52.574;14.398;2023-08-12T14:57:34;101543.72;;;26.06;59.26
77639;BME280;66802;52.574;14.398;2023-08-12T15:00:00;101550.72;;;26.20;59.32
77639;BME280;66802;52.574;14.398;2023-08-12T15:02:25;101545.19;;;26.20;59.63
77639;BME280;66802;52.574;14.398;2023-08-12T15:04:51;101546.56;;;26.29;59.56
77639;BME280;66802;52.574;14.398;2023-08-12T15:07:17;101536.94;;;26.32;57.41
77639;BME280;66802;52.574;14.398;2023-08-12T15:09:44;101532.72;;;26.41;58.45
77639;BME280;66802;52.574;14.398;2023-08-12T15:12:09;101524.66;;;26.63;57.89
77639;BME280;66802;52.574;14.398;2023-08-12T15:14:35;101524.41;;;26.87;58.18
77639;BME280;66802;52.574;14.398;2023-08-12T15:17:01;101515.38;;;27.04;56.52
77639;BME280;66802;52.574;14.398;2023-08-12T15:19:26;101513.09;;;27.01;56.64
77639;BME280;66802;52.574;14.398;2023-08-12T15:21:51;101506.31;;;27.08;56.53
77639;BME280;66802;52.574;14.398;2023-08-12T15:24:17;101512.09;;;27.07;56.09
77639;BME280;66802;52.574;14.398;2023-08-12T15:26:43;101512.63;;;27.04;55.68
77639;BME280;66802;52.574;14.398;2023-08-12T15:29:08;101512.50;;;26.99;55.95
77639;BME280;66802;52.574;14.398;2023-08-12T15:31:34;101506.81;;;26.94;55.62
77639;BME280;66802;52.574;14.398;2023-08-12T15:33:59;101509.88;;;26.92;56.02
77639;BME280;66802;52.574;14.398;2023-08-12T15:36:25;101502.38;;;26.81;56.50
77639;BME280;66802;52.574;14.398;2023-08-12T15:38:50;101496.09;;;26.85;55.50
77639;BME280;66802;52.574;14.398;2023-08-12T15:41:16;101489.25;;;26.76;55.37
77639;BME280;66802;52.574;14.398;2023-08-12T15:43:42;101493.78;;;26.82;54.68
77639;BME280;66802;52.574;14.398;2023-08-12T15:46:08;101496.25;;;26.67;55.27